Flight Track Log - Related Links

Times and Time Zones

All times are in EDT time to prevent confusion due to time zone crossing. See the CTL16 flight status page for this flight to view local times or setup timezone preferences in your user account.

Time Position Orientation Groundspeed Altitude Reporting Facility
EDT Latitude Longitude Course Direction KTS MPH feet Rate Location/Type
Thu 09:16:13 PM 39.4333 -84.4167 45° Northeast 147 169 2,700  Level Cincinnati TRACON
Thu 09:17:09 PM 39.4644 -84.3764 45° Northeast 157 181 3,100 404 Climbing Indianapolis Center
Thu 09:17:42 PM 39.4822 -84.3550 43° Northeast 155 178 3,300 364 Climbing Indianapolis Center
Thu 09:18:15 PM 39.4989 -84.3311 48° Northeast 159 183 3,500 447 Climbing Indianapolis Center
Thu 09:19:16 PM 39.5322 -84.2936 41° Northeast 158 182 4,000 362 Climbing Indianapolis Center
Thu 09:20:11 PM 39.5597 -84.2550 47° Northeast 157 181 4,200 198 Climbing Indianapolis Center
Thu 09:20:47 PM 39.5778 -84.2342 42° Northeast 158 182 4,300 371 Climbing Indianapolis Center
Thu 09:21:48 PM 39.6081 -84.1939 46° Northeast 157 181 4,800 439 Climbing Indianapolis Center
Thu 09:22:50 PM 39.6383 -84.1583 42° Northeast 152 175 5,200 585 Climbing Indianapolis Center
Thu 09:23:51 PM 39.6672 -84.1231 43° Northeast 146 168 6,000 683 Climbing Indianapolis Center
Thu 09:24:53 PM 39.6914 -84.0942 43° Northeast 131 151 6,600 488 Climbing Indianapolis Center
Thu 09:25:54 PM 39.7167 -84.0631 43° Northeast 125 144 7,000 255 Climbing Indianapolis Center
Thu 09:26:27 PM 39.7358 -84.0411 41° Northeast 147 169 7,000  Level Indianapolis Center
Thu 09:27:28 PM 39.7697 -83.9981 44° Northeast 156 180 7,000  Level Indianapolis Center
Thu 09:27:58 PM 39.7797 -83.9847 46° Northeast 151 174 7,000  Level Indianapolis Center
Thu 09:28:59 PM 39.8125 -83.9453 43° Northeast 157 181 7,000  Level Indianapolis Center
Thu 09:30:01 PM 39.8506 -83.8978 44° Northeast 160 184 7,000  Level Indianapolis Center
Thu 09:31:02 PM 39.8831 -83.8572 44° Northeast 160 184 7,000  Level Indianapolis Center
Thu 09:32:04 PM 39.9153 -83.8161 44° Northeast 161 185 7,000 -98 Level Indianapolis Center
Thu 09:33:05 PM 39.9481 -83.7747 44° Northeast 161 185 6,800 -390 Descending Indianapolis Center
Thu 09:34:07 PM 39.9836 -83.7294 44° Northeast 168 193 6,200 -634 Descending Indianapolis Center
Thu 09:35:08 PM 40.0206 -83.6817 45° Northeast 178 205 5,500 -585 Descending Indianapolis Center
Thu 09:36:10 PM 40.0572 -83.6353 44° Northeast 181 208 5,000 -293 Descending Indianapolis Center
Thu 09:37:11 PM 40.0919 -83.5911 44° Northeast 177 204 4,900  Descending Indianapolis Center
Thu 09:38:13 PM 40.1217 -83.5492 47° Northeast 165 190 5,000 48 Climbing Indianapolis Center
Thu 09:39:15 PM 40.1528 -83.5081 45° Northeast 159 183 5,000  Level Indianapolis Center
Thu 09:40:16 PM 40.1856 -83.4653 45° Northeast 161 185 5,000  Level Indianapolis Center
Thu 09:41:18 PM 40.2172 -83.4231 46° Northeast 161 185 5,000 49 Level Indianapolis Center
Thu 09:42:19 PM 40.2508 -83.3811 44° Northeast 163 188 5,100 46 Climbing Indianapolis Center
Thu 09:43:28 PM 40.2892 -83.3319 44° Northeast 162 186 5,100 -49 Level Indianapolis Center
Thu 09:44:22 PM 40.3214 -83.2903 45° Northeast 164 189 5,000 -259 Descending Indianapolis Center
Thu 09:45:24 PM 40.3553 -83.2472 44° Northeast 165 190 4,600 -439 Descending Indianapolis Center
Thu 09:46:25 PM 40.3917 -83.2003 44° Northeast 174 200 4,100 -439 Descending Indianapolis Center
Thu 09:47:27 PM 40.4289 -83.1531 44° Northeast 180 207 3,700 -341 Descending Indianapolis Center
Thu 09:48:28 PM 40.4647 -83.1050 46° Northeast 181 208 3,400 -341 Descending Indianapolis Center
Thu 09:49:30 PM 40.5000 -83.0572 46° Northeast 181 208 3,000 -195 Descending Indianapolis Center
Thu 09:50:31 PM 40.5342 -83.0103 46° Northeast 179 206 3,000 49 Level Indianapolis Center
Thu 09:51:33 PM 40.5678 -82.9656 45° Northeast 172 198 3,100  Climbing Indianapolis Center
Thu 09:52:34 PM 40.6058 -82.9386 28° Northeast 156 180 3,000 -49 Descending Indianapolis Center
Thu 09:53:36 PM 40.6381 -82.9050 38° Northeast 151 174 3,000  Level Indianapolis Center
Thu 09:54:37 PM 40.6661 -82.8592 51° Northeast 153 176 3,000  Level Indianapolis Center
Thu 09:55:38 PM 40.6953 -82.8183 47° Northeast 151 174 3,000  Level Indianapolis Center
Thu 09:56:40 PM 40.7253 -82.7781 45° Northeast 153 176 3,000  Level Indianapolis Center
Thu 09:57:41 PM 40.7544 -82.7369 47° Northeast 152 175 3,000  Level Indianapolis Center

Login

Don't have an account? Register now (free) for customized features, flight alerts, and more!